İstanbul Airport

LTFM · Istanbul, Turquie

METAR anciennes LTFM · Istanbul Airport

Tu vois ci-dessous les METAR des derniers jours. Sélectionne une année pour parcourir les METAR plus anciens, à partir de l'année 2007.

20 juin 2024

Temps Code Temps Temp. Vue Base cloud Vent METAR/SPECI
14:50
V
27 °C 10 km+ - 040° 040° 12 kt METAR LTFM 201150Z 04012KT 330V050 9999 FEW016 27/18 Q1016 NOSIG RMK RWY17L 02012KT RWY34L 36013KT RWY16R 01013KT 340V040 RWY36 02012KT RWY18 01011KT
14:20
V
26 °C 10 km+ - 040° 040° 12 kt METAR LTFM 201120Z 04012KT 9999 FEW016 26/17 Q1016 NOSIG
13:50
V
27 °C 10 km+ - 030° 030° 12 kt METAR LTFM 201050Z 03012KT 360V060 9999 FEW016 27/17 Q1016 NOSIG RMK RWY17L 01012KT RWY34L 36012KT RWY16R 02011KT RWY36 02011KT RWY18 02012KT
13:20
V
27 °C 10 km+ - 020° 020° 14 kt METAR LTFM 201020Z 02014KT 340V060 9999 FEW016 27/19 Q1016 NOSIG
12:50
V
27 °C 10 km+ - 030° 030° 12 kt METAR LTFM 200950Z 03012KT 350V050 9999 FEW016 27/19 Q1017 NOSIG RMK RWY17L 02012KT RWY34L 01012KT RWY16R 01012KT 340V040 RWY36 02012KT RWY18 02012KT 350V050
12:20
V
26 °C 10 km+ - 010° 010° 12 kt METAR LTFM 200920Z 01012KT 340V040 9999 FEW016 26/20 Q1017 NOSIG
11:50
V
26 °C 10 km+ - 010° 010° 14 kt METAR LTFM 200850Z 01014KT 330V040 9999 SCT014 26/18 Q1017 NOSIG RMK RWY17L 01014KT RWY34L 36013KT RWY16R 36013KT RWY36 02013KT RWY18 36013KT
11:20
V
26 °C 10 km+ - 010° 010° 13 kt METAR LTFM 200820Z 01013KT 9999 SCT014 26/19 Q1017 NOSIG
10:50
V
26 °C 10 km+ - 020° 020° 12 kt METAR LTFM 200750Z 02012KT 350V050 9999 SCT012 26/19 Q1017 NOSIG RMK RWY17L 02012KT RWY34L 02011KT 340V050 RWY16R 01012KT RWY36 01011KT RWY18 02011KT
09:50
V
25 °C 10 km+ - 020° 020° 11 kt METAR LTFM 200650Z 02011KT 9999 SCT012 25/18 Q1017 NOSIG RMK RWY17L 02012KT RWY34L 01010KT RWY16R 02011KT RWY36 04010KT RWY18 03011KT
09:20
I
25 °C 10 km+ 700 ft 020° 020° 11 kt METAR LTFM 200620Z 02011KT 9999 BKN007 25/18 Q1017 NOSIG
08:50
I
24 °C 10 km+ 700 ft 030° 030° 10 kt METAR LTFM 200550Z 03010KT 9999 BKN007 24/20 Q1017 NOSIG RMK RWY17L 02011KT RWY34L 01011KT RWY16R 01012KT RWY36 03012KT RWY18 02011KT
08:20
I
24 °C 10 km+ 800 ft 020° 020° 9 kt METAR LTFM 200520Z 02009KT 330V040 9999 BKN008 24/20 Q1017 NOSIG
07:50
I
23 °C 10 km+ 700 ft 030° 030° 10 kt METAR LTFM 200450Z 03010KT 9999 BKN007 23/21 Q1017 NOSIG RMK RWY17L 03010KT RWY34L 02008KT RWY16R 01010KT RWY36 03010KT RWY18 03010KT
07:20
I
23 °C 10 km+ 700 ft 020° 020° 9 kt METAR LTFM 200420Z 02009KT 9999 BKN007 23/21 Q1016 NOSIG
06:50
I
22 °C 10 km+ 500 ft 020° 020° 9 kt METAR LTFM 200350Z 02009KT 9999 BKN005 22/21 Q1016 NOSIG RMK RWY17L 04009KT RWY34L 02008KT RWY16R 03008KT RWY36 03009KT RWY18 03008KT
06:20
I
22 °C 10 km+ 500 ft 030° 030° 7 kt METAR LTFM 200320Z 03007KT 9999 BKN005 22/21 Q1016 NOSIG
05:50
L
22 °C 10 km+ 400 ft 030° 030° 7 kt METAR LTFM 200250Z 03007KT 9999 BKN004 22/21 Q1016 NOSIG RMK RWY17L 04005KT RWY34L 03007KT RWY16R 02007KT RWY36 03007KT 360V060 RWY18 03005KT
05:20
L
22 °C 10 km+ 400 ft 040° 040° 8 kt METAR LTFM 200220Z 04008KT 9999 BKN004 22/21 Q1016 NOSIG
04:50
I
22 °C 10 km+ 500 ft 060° 060° 8 kt METAR LTFM 200150Z 06008KT 030V100 9999 BKN005 22/21 Q1016 NOSIG RMK RWY17L 05007KT RWY34L 03007KT RWY16R 04007KT RWY36 05008KT RWY18 05007KT
04:20
I
23 °C 10 km+ 500 ft 050° 050° 8 kt METAR LTFM 200120Z 05008KT 020V110 9999 BKN005 23/21 Q1016 NOSIG
03:50
L
22 °C 10 km+ 400 ft 050° 050° 10 kt METAR LTFM 200050Z 05010KT 9999 BKN004 22/21 Q1016 NOSIG RMK RWY17L 05006KT RWY34L 03008KT RWY16R 05007KT RWY36 05008KT RWY18 05008KT
03:20
L
22 °C 10 km+ 400 ft 040° 040° 9 kt METAR LTFM 200020Z 04009KT 9999 BKN004 22/21 Q1016 NOSIG
02:50
I
22 °C 10 km+ 500 ft 030° 030° 10 kt METAR LTFM 192350Z 03010KT 9999 BKN005 22/21 Q1017 NOSIG RMK RWY17L 04008KT RWY34L 02010KT RWY16R 03009KT RWY36 03010KT RWY18 03008KT
02:20
I
23 °C 10 km+ 600 ft 040° 040° 10 kt METAR LTFM 192320Z 04010KT 9999 BKN006 23/21 Q1017 NOSIG
01:50
I
23 °C 10 km+ 600 ft 030° 030° 8 kt METAR LTFM 192250Z 03008KT 9999 BKN006 23/21 Q1017 NOSIG RMK RWY17L 04007KT RWY34L 02008KT RWY16R 03008KT RWY36 03008KT RWY18 04007KT
01:20
I
23 °C 10 km+ 700 ft 040° 040° 8 kt METAR LTFM 192220Z 04008KT 9999 BKN007 23/21 Q1017 NOSIG
00:50
I
23 °C 10 km+ 700 ft 040° 040° 8 kt METAR LTFM 192150Z 04008KT 9999 BKN007 23/21 Q1017 NOSIG RMK RWY17L 04007KT RWY34L 03008KT RWY16R 03008KT RWY36 04006KT RWY18 04008KT
00:20
I
23 °C 10 km+ 800 ft 040° 040° 8 kt METAR LTFM 192120Z 04008KT 9999 BKN008 23/21 Q1017 NOSIG

19 juin 2024

Temps Code Temps Temp. Vue Base cloud Vent METAR/SPECI
23:50
I
23 °C 10 km+ 900 ft 040° 040° 9 kt METAR LTFM 192050Z 04009KT 9999 BKN009 23/21 Q1017 NOSIG RMK RWY17L 04007KT RWY34L 03008KT RWY16R 03008KT RWY36 03009KT RWY18 04007KT
23:20
I
23 °C 10 km+ 900 ft 030° 030° 9 kt METAR LTFM 192020Z 03009KT 9999 BKN009 23/21 Q1017 NOSIG
23:06
I
22 °C 10 km+ 900 ft 030° 030° 9 kt METAR LTFM 192006Z 03009KT 9999 BKN009 22/21 Q1017 NOSIG
22:50
V
23 °C 10 km+ - 030° 030° 9 kt METAR LTFM 191950Z 03009KT 9999 SCT012 23/21 Q1018 NOSIG RMK RWY17L 03006KT RWY34L 02010KT RWY16R 02007KT RWY36 03009KT RWY18 03006KT
22:20
V
23 °C 10 km+ - 040° 040° 10 kt METAR LTFM 191920Z 04010KT 9999 SCT016 23/21 Q1018 NOSIG
21:50
V
23 °C 10 km+ - 050° 050° 10 kt METAR LTFM 191850Z 05010KT 9999 SCT016 23/21 Q1018 NOSIG
21:20
V
23 °C 10 km+ - 050° 050° 10 kt METAR LTFM 191820Z 05010KT 9999 SCT016 23/21 Q1018 NOSIG
20:50
V
24 °C 10 km+ - 060° 060° 12 kt METAR LTFM 191750Z 06012KT 9999 FEW020 24/21 Q1018 NOSIG
20:20
V
24 °C 10 km+ - 060° 060° 13 kt METAR LTFM 191720Z 06013KT 9999 FEW020 24/21 Q1018 NOSIG
19:50
V
24 °C 10 km+ - 050° 050° 13 kt METAR LTFM 191650Z 05013KT 9999 FEW020 24/20 Q1018 NOSIG
19:20
V
24 °C 10 km+ - 040° 040° 14 kt METAR LTFM 191620Z 04014KT 9999 FEW020 24/20 Q1017 NOSIG RMK RWY17L 05013KT RWY34L 04011KT RWY16R 03012KT RWY36 04013KT RWY18 05012KT
18:50
V
25 °C 10 km+ - 050° 050° 15 kt METAR LTFM 191550Z 05015KT 9999 FEW017 25/20 Q1017 NOSIG RMK RWY17L 04013KT RWY34L 02014KT RWY16R 03013KT RWY36 04015KT RWY18 04012KT
18:20
V
25 °C 10 km+ - 050° 050° 16 kt METAR LTFM 191520Z 05016KT 9999 FEW017 25/20 Q1017 NOSIG
17:50
V
25 °C 10 km+ - 040° 040° 15 kt METAR LTFM 191450Z 04015KT 9999 FEW018 25/20 Q1017 NOSIG
17:20
V
25 °C 10 km+ - 050° 050° 16 kt METAR LTFM 191420Z 05016KT 9999 FEW018 25/20 Q1017 NOSIG
16:50
V
25 °C 10 km+ - 040° 040° 17 kt METAR LTFM 191350Z 04017KT 9999 FEW018 25/20 Q1018 NOSIG RMK RWY17L 04015KT RWY34L 03013KT RWY16R 03015KT RWY36 04015KT RWY18 05014KT
16:20
V
26 °C 10 km+ - 040° 040° 17 kt METAR LTFM 191320Z 04017KT 9999 FEW018 26/20 Q1018 NOSIG
15:50
V
25 °C 10 km+ - 050° 050° 17 kt METAR LTFM 191250Z 05017KT 9999 FEW018 25/19 Q1018 NOSIG RMK RWY17L 04015KT RWY34L 02015KT RWY16R 03015KT RWY36 03016KT RWY18 05014KT
15:20
V
25 °C 10 km+ - 030° 030° 16 kt METAR LTFM 191220Z 03016KT 9999 FEW020 25/20 Q1018 NOSIG
14:50
V
26 °C 10 km+ - 040° 040° 17 kt METAR LTFM 191150Z 04017KT 9999 FEW020 26/19 Q1018 NOSIG RMK RWY17L 03016KT RWY34L 02016KT RWY16R 04015KT RWY36 04017KT RWY18 04014KT
14:20
V
26 °C 10 km+ - 050° 050° 16 kt METAR LTFM 191120Z 05016KT 350V070 9999 FEW020 26/20 Q1018 NOSIG
13:50
V
26 °C 10 km+ - 030° 030° 18 kt METAR LTFM 191050Z 03018KT 9999 FEW020 26/19 Q1018 NOSIG RMK RWY17L 04015KT RWY34L 04016KT RWY16R 03016KT RWY36 03017KT RWY18 04014KT
13:20
V
25 °C 10 km+ - 040° 040° 18 kt METAR LTFM 191020Z 04018KT 9999 FEW020 25/19 Q1019 NOSIG
12:50
V
25 °C 10 km+ - 040° 040° 15 kt METAR LTFM 190950Z 04015KT 9999 FEW020 25/19 Q1019 NOSIG RMK RWY17L 03015KT RWY34L 03014KT RWY16R 02014KT RWY36 03015KT RWY18 04014KT
12:20
V
26 °C 10 km+ - 040° 040° 14 kt METAR LTFM 190920Z 04014KT 360V060 9999 FEW020 26/19 Q1019 NOSIG
11:50
V
25 °C 10 km+ - 040° 040° 16 kt METAR LTFM 190850Z 04016KT 9999 FEW020 25/18 Q1019 NOSIG RMK RWY17L 04014KT RWY34L 03014KT RWY16R 03014KT RWY36 04015KT RWY18 06013KT
11:20
V
25 °C 10 km+ - 050° 050° 16 kt METAR LTFM 190820Z 05016KT 9999 FEW020 25/19 Q1019 NOSIG
10:50
V
25 °C 10 km+ - 050° 050° 15 kt METAR LTFM 190750Z 05015KT 9999 FEW020 25/18 Q1019 NOSIG RMK RWY17L 03014KT RWY34L 02015KT RWY16R 04014KT RWY36 03014KT RWY18 04013KT
10:20
V
25 °C 10 km+ - 040° 040° 14 kt METAR LTFM 190720Z 04014KT 9999 FEW020 25/18 Q1018 NOSIG
09:50
V
25 °C 10 km+ - 040° 040° 15 kt METAR LTFM 190650Z 04015KT 9999 FEW020 25/18 Q1018 NOSIG RMK RWY17L 05014KT RWY34L 03013KT RWY16R 04013KT RWY36 05014KT 020V080 RWY18 05013KT
09:20
V
24 °C 10 km+ - 050° 050° 15 kt METAR LTFM 190620Z 05015KT 9999 FEW020 24/19 Q1018 NOSIG
08:50
V
24 °C 10 km+ - 050° 050° 16 kt METAR LTFM 190550Z 05016KT 9999 FEW020 24/19 Q1018 NOSIG RMK RWY17L 04013KT RWY34L 05013KT RWY16R 04014KT RWY36 05014KT RWY18 05012KT
08:20
V
24 °C 10 km+ - 060° 060° 14 kt METAR LTFM 190520Z 06014KT CAVOK 24/19 Q1018 NOSIG
07:50
V
24 °C 10 km+ - 050° 050° 14 kt METAR LTFM 190450Z 05014KT CAVOK 24/19 Q1018 NOSIG RMK RWY17L 06012KT RWY34L 04012KT RWY16R 05012KT RWY36 05014KT RWY18 06012KT
07:20
V
23 °C 10 km+ - 050° 050° 13 kt METAR LTFM 190420Z 05013KT 010V070 CAVOK 23/18 Q1018 NOSIG
06:50
V
23 °C 10 km+ - 050° 050° 12 kt METAR LTFM 190350Z 05012KT CAVOK 23/19 Q1018 NOSIG RMK RWY17L 05009KT RWY34L 03010KT RWY16R 05009KT RWY36 05011KT RWY18 06010KT
06:20
V
22 °C 10 km+ - 050° 050° 10 kt METAR LTFM 190320Z 05010KT CAVOK 22/19 Q1017 NOSIG
05:50
V
22 °C 10 km+ - 040° 040° 8 kt METAR LTFM 190250Z 04008KT CAVOK 22/19 Q1017 NOSIG RMK RWY17L 05008KT RWY34L 04008KT RWY16R 05008KT RWY36 04009KT RWY18 06007KT
05:20
V
22 °C 10 km+ - 060° 060° 9 kt METAR LTFM 190220Z 06009KT CAVOK 22/19 Q1017 NOSIG
04:50
V
22 °C 10 km+ - 050° 050° 8 kt METAR LTFM 190150Z 05008KT CAVOK 22/19 Q1018 NOSIG RMK RWY17L 06007KT RWY34L 04007KT RWY16R 06008KT RWY36 05008KT 360V070 RWY18 06008KT
04:20
V
22 °C 10 km+ - 030° 030° 7 kt METAR LTFM 190120Z 03007KT CAVOK 22/20 Q1018 NOSIG
03:50
V
21 °C 10 km+ - 030° 030° 7 kt METAR LTFM 190050Z 03007KT CAVOK 21/20 Q1018 NOSIG RMK RWY17L 04006KT RWY34L 02007KT RWY16R 03007KT RWY36 03007KT RWY18 04008KT
03:20
V
22 °C 10 km+ - 040° 040° 8 kt METAR LTFM 190020Z 04008KT CAVOK 22/20 Q1018 NOSIG
02:50
V
22 °C 10 km+ - 050° 050° 8 kt METAR LTFM 182350Z 05008KT 9999 FEW022 22/20 Q1018 NOSIG RMK RWY17L 05006KT RWY34L 03006KT RWY16R 04006KT RWY36 05007KT 010V080 RWY18 06006KT
02:20
V
22 °C 10 km+ - 050° 050° 8 kt METAR LTFM 182320Z 05008KT 010V070 9999 FEW022 22/20 Q1018 NOSIG
01:50
V
22 °C 10 km+ - 050° 050° 9 kt METAR LTFM 182250Z 05009KT 360V070 9999 FEW022 22/20 Q1018 NOSIG RMK RWY17L 07008KT RWY34L 05007KT RWY16R 06007KT RWY36 06009G19KT 020V080 RWY18 07008KT
01:20
V
22 °C 10 km+ - 060° 060° 10 kt METAR LTFM 182220Z 06010KT 9999 FEW020 SCT120 22/20 Q1018 NOSIG
00:50
V
23 °C 10 km+ - 060° 060° 11 kt METAR LTFM 182150Z 06011KT 9999 FEW020 SCT120 23/20 Q1018 NOSIG RMK RWY17L 06008KT RWY34L 05008KT RWY16R 06008KT RWY36 06008KT 020V080 RWY18 07008KT
00:20
V
23 °C 10 km+ - 060° 060° 12 kt METAR LTFM 182120Z 06012KT 9999 FEW022 23/20 Q1018 NOSIG

18 juin 2024

Temps Code Temps Temp. Vue Base cloud Vent METAR/SPECI
23:50
V
23 °C 10 km+ - 060° 060° 12 kt METAR LTFM 182050Z 06012KT 9999 FEW022 23/20 Q1018 NOSIG RMK RWY17L 06008KT RWY34L 05009KT RWY16R 05008KT RWY36 06011KT RWY18 07009KT
23:20
V
23 °C 10 km+ - 050° 050° 10 kt METAR LTFM 182020Z 05010KT 9999 FEW022 23/20 Q1018 NOSIG
22:50
V
23 °C 10 km+ - 070° 070° 9 kt METAR LTFM 181950Z 07009KT 9999 FEW022 23/20 Q1018 NOSIG RMK RWY17L 06008KT RWY34L 06008KT RWY16R 06009KT RWY36 07009KT RWY18 08010KT
22:20
V
23 °C 10 km+ - 060° 060° 12 kt METAR LTFM 181920Z 06012KT 9999 FEW022 23/20 Q1018 NOSIG
21:50
V
23 °C 10 km+ - 050° 050° 13 kt METAR LTFM 181850Z 05013KT 9999 FEW022 23/21 Q1018 NOSIG RMK RWY17L 05010KT RWY34L 03009KT RWY16R 05010KT RWY36 05012KT RWY18 06010KT
21:20
V
23 °C 10 km+ - 050° 050° 13 kt METAR LTFM 181820Z 05013KT 9999 FEW020 23/21 Q1018 NOSIG
20:50
V
23 °C 10 km+ - 050° 050° 13 kt METAR LTFM 181750Z 05013KT 9999 FEW022 23/20 Q1018 NOSIG RMK RWY17L 05010KT RWY34L 04009KT RWY16R 05011KT RWY36 05013KT RWY18 06011KT
20:20
V
24 °C 10 km+ - 050° 050° 13 kt METAR LTFM 181720Z 05013KT 010V070 9999 FEW022 24/21 Q1018 NOSIG
19:50
V
24 °C 10 km+ - 050° 050° 14 kt METAR LTFM 181650Z 05014KT 9999 FEW022 24/20 Q1018 NOSIG RMK RWY17L 05012KT RWY34L 03011KT RWY16R 05012KT RWY36 05013KT RWY18 06011KT
19:20
V
24 °C 10 km+ - 050° 050° 13 kt METAR LTFM 181620Z 05013KT 9999 FEW022 24/20 Q1018 NOSIG
18:50
V
25 °C 10 km+ - 050° 050° 14 kt METAR LTFM 181550Z 05014KT 9999 FEW022 25/20 Q1018 NOSIG RMK RWY17L 05012KT RWY34L 03012KT RWY16R 04012KT RWY36 05014KT RWY18 06012KT
18:20
V
25 °C 10 km+ - 060° 060° 15 kt METAR LTFM 181520Z 06015KT 9999 FEW022 25/20 Q1018 NOSIG
17:50
V
25 °C 10 km+ - 060° 060° 15 kt METAR LTFM 181450Z 06015KT 9999 FEW022 25/20 Q1018 NOSIG RMK RWY17L 06013KT RWY34L 04012KT 020V080 RWY16R 06014KT RWY36 05015KT RWY18 06013KT
17:20
V
26 °C 10 km+ - 050° 050° 15 kt METAR LTFM 181420Z 05015KT 9999 FEW022 26/20 Q1018 NOSIG
16:50
V
26 °C 10 km+ - 050° 050° 15 kt METAR LTFM 181350Z 05015KT 9999 FEW022 26/20 Q1018 NOSIG RMK RWY17L 05014KT RWY34L 03014KT RWY16R 03014KT RWY36 05015KT RWY18 05014KT
16:20
V
26 °C 10 km+ - 050° 050° 15 kt METAR LTFM 181320Z 05015KT 9999 FEW022 26/20 Q1018 NOSIG
15:50
V
26 °C 10 km+ - 050° 050° 15 kt METAR LTFM 181250Z 05015KT 9999 FEW022 26/20 Q1018 NOSIG RMK RWY17L 05015KT RWY34L 03013KT RWY16R 03014KT RWY36 05015KT RWY18 05014KT
15:20
V
25 °C 10 km+ - 040° 040° 15 kt METAR LTFM 181220Z 04015KT 9999 FEW022 25/20 Q1018 NOSIG
14:50
V
25 °C 10 km+ - 040° 040° 15 kt METAR LTFM 181150Z 04015KT 9999 FEW022 25/20 Q1018 NOSIG RMK RWY17L 04014KT RWY34L 04014KT RWY16R 04015KT RWY36 04015KT RWY18 05014KT
14:20
V
26 °C 10 km+ - 050° 050° 15 kt METAR LTFM 181120Z 05015KT CAVOK 26/20 Q1018 NOSIG
13:50
V
26 °C 10 km+ - 040° 040° 15 kt METAR LTFM 181050Z 04015KT CAVOK 26/20 Q1018 NOSIG RMK RWY17L 05014KT RWY34L 03014KT RWY16R 04015KT RWY36 06016KT RWY18 05013KT
13:20
V
25 °C 10 km+ - 040° 040° 15 kt METAR LTFM 181020Z 04015KT CAVOK 25/19 Q1018 NOSIG
12:50
V
25 °C 10 km+ - 040° 040° 15 kt METAR LTFM 180950Z 04015KT CAVOK 25/19 Q1018 NOSIG RMK RWY17L 05013KT RWY34L 04013KT RWY16R 03014KT RWY36 05015KT RWY18 05013KT 010V070
12:20
V
25 °C 10 km+ - 040° 040° 14 kt METAR LTFM 180920Z 04014KT CAVOK 25/18 Q1018 NOSIG
11:50
V
26 °C 10 km+ - 040° 040° 15 kt METAR LTFM 180850Z 04015KT CAVOK 26/18 Q1018 NOSIG RMK RWY17L 04012KT RWY34L 03012KT RWY16R 03012KT RWY36 04014KT RWY18 04012KT
11:20
V
24 °C 10 km+ - 030° 030° 13 kt METAR LTFM 180820Z 03013KT CAVOK 24/19 Q1018 NOSIG
10:50
V
25 °C 10 km+ - 050° 050° 13 kt METAR LTFM 180750Z 05013KT CAVOK 25/19 Q1018 NOSIG RMK RWY17L 04012KT RWY34L 03012KT 360V060 RWY16R 04012KT RWY36 04013KT RWY18 06012KT
10:20
V
24 °C 10 km+ - 050° 050° 13 kt METAR LTFM 180720Z 05013KT 020V080 9999 FEW012 24/19 Q1018 NOSIG
09:50
V
24 °C 10 km+ - 060° 060° 12 kt METAR LTFM 180650Z 06012KT 9999 FEW012 24/19 Q1018 NOSIG RMK RWY17L 06012KT RWY34L 06011KT RWY16R 05011KT RWY36 06012KT RWY18 07010KT
09:20
V
24 °C 10 km+ - 060° 060° 13 kt METAR LTFM 180620Z 06013KT 9999 FEW012 24/19 Q1018 NOSIG
08:50
V
24 °C 10 km+ - 050° 050° 12 kt METAR LTFM 180550Z 05012KT 9999 FEW012 24/19 Q1018 NOSIG RMK RWY17L 06011KT RWY34L 05011KT 010V070 RWY16R 05011KT RWY36 07012KT RWY18 07011KT
Signaler les modifications